sensor_id;sensor_type;location;lat;lon;timestamp;P1;durP1;ratioP1;P2;durP2;ratioP2
64031;SDS011;50278;47.796;11.968;2022-10-16T00:00:33;0.60;;;0.40;;
64031;SDS011;50278;47.796;11.968;2022-10-16T00:03:00;1.92;;;0.50;;
64031;SDS011;50278;47.796;11.968;2022-10-16T00:05:26;2.55;;;0.68;;
64031;SDS011;50278;47.796;11.968;2022-10-16T00:07:51;2.25;;;0.50;;
64031;SDS011;50278;47.796;11.968;2022-10-16T00:10:17;1.23;;;0.60;;
64031;SDS011;50278;47.796;11.968;2022-10-16T00:12:42;1.48;;;0.57;;
64031;SDS011;50278;47.796;11.968;2022-10-16T00:15:08;2.45;;;0.60;;
64031;SDS011;50278;47.796;11.968;2022-10-16T00:17:34;2.17;;;0.70;;
64031;SDS011;50278;47.796;11.968;2022-10-16T00:19:59;2.13;;;0.98;;
64031;SDS011;50278;47.796;11.968;2022-10-16T00:22:25;1.17;;;0.60;;
64031;SDS011;50278;47.796;11.968;2022-10-16T00:24:50;1.48;;;0.80;;
64031;SDS011;50278;47.796;11.968;2022-10-16T00:27:16;2.38;;;0.90;;
64031;SDS011;50278;47.796;11.968;2022-10-16T00:29:42;3.05;;;0.80;;
64031;SDS011;50278;47.796;11.968;2022-10-16T00:32:07;3.40;;;0.65;;
64031;SDS011;50278;47.796;11.968;2022-10-16T00:34:33;4.32;;;1.13;;
64031;SDS011;50278;47.796;11.968;2022-10-16T00:36:59;4.25;;;0.80;;
64031;SDS011;50278;47.796;11.968;2022-10-16T00:39:24;3.00;;;0.63;;
64031;SDS011;50278;47.796;11.968;2022-10-16T00:41:50;0.85;;;0.60;;
64031;SDS011;50278;47.796;11.968;2022-10-16T00:47:17;1.08;;;0.65;;
64031;SDS011;50278;47.796;11.968;2022-10-16T00:49:53;1.30;;;0.40;;
64031;SDS011;50278;47.796;11.968;2022-10-16T00:52:27;1.70;;;0.60;;
64031;SDS011;50278;47.796;11.968;2022-10-16T00:54:53;2.28;;;0.80;;
64031;SDS011;50278;47.796;11.968;2022-10-16T00:57:19;2.28;;;0.70;;
64031;SDS011;50278;47.796;11.968;2022-10-16T00:59:45;4.55;;;0.60;;
64031;SDS011;50278;47.796;11.968;2022-10-16T01:02:13;2.45;;;0.60;;
64031;SDS011;50278;47.796;11.968;2022-10-16T01:04:45;1.63;;;0.63;;
64031;SDS011;50278;47.796;11.968;2022-10-16T01:10:07;1.30;;;0.75;;
64031;SDS011;50278;47.796;11.968;2022-10-16T01:17:48;4.03;;;1.50;;
64031;SDS011;50278;47.796;11.968;2022-10-16T01:20:29;4.40;;;1.30;;
64031;SDS011;50278;47.796;11.968;2022-10-16T01:25:46;1.88;;;1.17;;
64031;SDS011;50278;47.796;11.968;2022-10-16T01:28:28;4.85;;;0.60;;
64031;SDS011;50278;47.796;11.968;2022-10-16T01:33:38;1.75;;;0.80;;
64031;SDS011;50278;47.796;11.968;2022-10-16T01:36:11;3.65;;;1.25;;
64031;SDS011;50278;47.796;11.968;2022-10-16T01:38:41;3.85;;;1.10;;
64031;SDS011;50278;47.796;11.968;2022-10-16T01:41:14;4.03;;;0.80;;
64031;SDS011;50278;47.796;11.968;2022-10-16T01:43:48;3.10;;;0.88;;
64031;SDS011;50278;47.796;11.968;2022-10-16T01:46:20;3.28;;;0.90;;
64031;SDS011;50278;47.796;11.968;2022-10-16T01:48:47;1.08;;;0.90;;
64031;SDS011;50278;47.796;11.968;2022-10-16T01:51:15;1.85;;;0.63;;
64031;SDS011;50278;47.796;11.968;2022-10-16T01:53:43;6.65;;;0.85;;
64031;SDS011;50278;47.796;11.968;2022-10-16T01:56:13;2.87;;;0.90;;
64031;SDS011;50278;47.796;11.968;2022-10-16T01:58:48;2.65;;;1.00;;
64031;SDS011;50278;47.796;11.968;2022-10-16T02:01:19;4.05;;;0.85;;
64031;SDS011;50278;47.796;11.968;2022-10-16T02:03:48;4.93;;;0.90;;
64031;SDS011;50278;47.796;11.968;2022-10-16T02:06:17;3.40;;;0.70;;
64031;SDS011;50278;47.796;11.968;2022-10-16T02:08:43;1.77;;;0.90;;
64031;SDS011;50278;47.796;11.968;2022-10-16T02:11:09;4.45;;;0.82;;
64031;SDS011;50278;47.796;11.968;2022-10-16T02:13:37;1.08;;;0.75;;
64031;SDS011;50278;47.796;11.968;2022-10-16T02:18:34;3.35;;;0.70;;
64031;SDS011;50278;47.796;11.968;2022-10-16T02:26:57;2.25;;;0.60;;
64031;SDS011;50278;47.796;11.968;2022-10-16T02:29:30;2.42;;;0.70;;
64031;SDS011;50278;47.796;11.968;2022-10-16T02:32:01;1.70;;;0.98;;
64031;SDS011;50278;47.796;11.968;2022-10-16T02:34:30;3.97;;;0.88;;
64031;SDS011;50278;47.796;11.968;2022-10-16T02:36:58;1.92;;;0.90;;
64031;SDS011;50278;47.796;11.968;2022-10-16T02:39:26;1.85;;;0.68;;
64031;SDS011;50278;47.796;11.968;2022-10-16T02:41:53;1.65;;;0.82;;
64031;SDS011;50278;47.796;11.968;2022-10-16T02:44:19;6.63;;;0.90;;
64031;SDS011;50278;47.796;11.968;2022-10-16T02:46:44;4.65;;;0.80;;
64031;SDS011;50278;47.796;11.968;2022-10-16T02:49:10;1.35;;;0.80;;
64031;SDS011;50278;47.796;11.968;2022-10-16T02:51:36;1.42;;;0.70;;
64031;SDS011;50278;47.796;11.968;2022-10-16T02:54:02;1.98;;;0.88;;
64031;SDS011;50278;47.796;11.968;2022-10-16T02:56:27;4.32;;;0.90;;
64031;SDS011;50278;47.796;11.968;2022-10-16T02:58:54;3.42;;;0.80;;
64031;SDS011;50278;47.796;11.968;2022-10-16T03:01:20;1.30;;;0.90;;
64031;SDS011;50278;47.796;11.968;2022-10-16T03:03:46;3.00;;;0.90;;
64031;SDS011;50278;47.796;11.968;2022-10-16T03:06:11;1.20;;;0.73;;
64031;SDS011;50278;47.796;11.968;2022-10-16T03:08:37;3.10;;;0.73;;
64031;SDS011;50278;47.796;11.968;2022-10-16T03:11:02;2.22;;;0.90;;
64031;SDS011;50278;47.796;11.968;2022-10-16T03:13:28;1.70;;;1.00;;
64031;SDS011;50278;47.796;11.968;2022-10-16T03:15:53;2.50;;;0.80;;
64031;SDS011;50278;47.796;11.968;2022-10-16T03:18:19;4.75;;;0.75;;
64031;SDS011;50278;47.796;11.968;2022-10-16T03:20:44;2.80;;;0.80;;
64031;SDS011;50278;47.796;11.968;2022-10-16T03:23:10;1.88;;;0.75;;
64031;SDS011;50278;47.796;11.968;2022-10-16T03:25:36;2.45;;;0.80;;
64031;SDS011;50278;47.796;11.968;2022-10-16T03:28:02;2.33;;;0.80;;
64031;SDS011;50278;47.796;11.968;2022-10-16T03:30:28;2.13;;;0.70;;
64031;SDS011;50278;47.796;11.968;2022-10-16T03:32:53;1.67;;;0.75;;
64031;SDS011;50278;47.796;11.968;2022-10-16T03:35:20;2.55;;;0.98;;
64031;SDS011;50278;47.796;11.968;2022-10-16T03:37:46;3.72;;;1.00;;
64031;SDS011;50278;47.796;11.968;2022-10-16T03:40:12;2.10;;;0.90;;
64031;SDS011;50278;47.796;11.968;2022-10-16T03:42:38;4.85;;;0.80;;
64031;SDS011;50278;47.796;11.968;2022-10-16T03:45:04;2.90;;;0.77;;
64031;SDS011;50278;47.796;11.968;2022-10-16T03:47:30;1.00;;;0.85;;
64031;SDS011;50278;47.796;11.968;2022-10-16T03:49:58;5.93;;;0.95;;
64031;SDS011;50278;47.796;11.968;2022-10-16T03:52:24;2.22;;;0.85;;
64031;SDS011;50278;47.796;11.968;2022-10-16T03:54:50;2.50;;;1.05;;
64031;SDS011;50278;47.796;11.968;2022-10-16T03:57:16;1.10;;;0.77;;
64031;SDS011;50278;47.796;11.968;2022-10-16T03:59:41;2.78;;;0.93;;
64031;SDS011;50278;47.796;11.968;2022-10-16T04:02:07;1.52;;;0.90;;
64031;SDS011;50278;47.796;11.968;2022-10-16T04:04:33;2.45;;;0.95;;
64031;SDS011;50278;47.796;11.968;2022-10-16T04:06:59;2.65;;;1.13;;
64031;SDS011;50278;47.796;11.968;2022-10-16T04:09:25;1.55;;;1.08;;
64031;SDS011;50278;47.796;11.968;2022-10-16T04:11:50;2.03;;;0.93;;
64031;SDS011;50278;47.796;11.968;2022-10-16T04:14:16;1.70;;;0.90;;
64031;SDS011;50278;47.796;11.968;2022-10-16T04:16:41;2.30;;;0.80;;
64031;SDS011;50278;47.796;11.968;2022-10-16T04:19:07;1.60;;;0.90;;
64031;SDS011;50278;47.796;11.968;2022-10-16T04:21:32;1.17;;;0.80;;
64031;SDS011;50278;47.796;11.968;2022-10-16T04:23:58;4.32;;;0.90;;
64031;SDS011;50278;47.796;11.968;2022-10-16T04:26:23;1.63;;;0.57;;
64031;SDS011;50278;47.796;11.968;2022-10-16T04:28:49;1.42;;;1.20;;
64031;SDS011;50278;47.796;11.968;2022-10-16T04:31:14;2.75;;;1.02;;
64031;SDS011;50278;47.796;11.968;2022-10-16T04:33:42;3.33;;;1.00;;
64031;SDS011;50278;47.796;11.968;2022-10-16T04:36:08;1.98;;;1.02;;
64031;SDS011;50278;47.796;11.968;2022-10-16T04:38:33;2.60;;;0.95;;
64031;SDS011;50278;47.796;11.968;2022-10-16T04:40:59;3.85;;;0.90;;
64031;SDS011;50278;47.796;11.968;2022-10-16T04:43:25;1.27;;;0.60;;
64031;SDS011;50278;47.796;11.968;2022-10-16T04:45:51;4.25;;;0.88;;
64031;SDS011;50278;47.796;11.968;2022-10-16T04:48:17;3.55;;;0.70;;
64031;SDS011;50278;47.796;11.968;2022-10-16T04:50:43;3.05;;;0.88;;
64031;SDS011;50278;47.796;11.968;2022-10-16T04:53:09;3.45;;;1.65;;
64031;SDS011;50278;47.796;11.968;2022-10-16T04:55:34;6.68;;;1.90;;
64031;SDS011;50278;47.796;11.968;2022-10-16T04:58:00;1.80;;;0.90;;
64031;SDS011;50278;47.796;11.968;2022-10-16T05:00:25;1.27;;;0.90;;
64031;SDS011;50278;47.796;11.968;2022-10-16T05:02:51;2.50;;;0.98;;
64031;SDS011;50278;47.796;11.968;2022-10-16T05:05:17;2.22;;;1.15;;
64031;SDS011;50278;47.796;11.968;2022-10-16T05:07:44;2.88;;;1.15;;
64031;SDS011;50278;47.796;11.968;2022-10-16T05:10:13;3.83;;;2.25;;
64031;SDS011;50278;47.796;11.968;2022-10-16T05:12:38;2.28;;;2.08;;
64031;SDS011;50278;47.796;11.968;2022-10-16T05:15:04;2.72;;;1.40;;
64031;SDS011;50278;47.796;11.968;2022-10-16T05:17:30;2.33;;;1.60;;
64031;SDS011;50278;47.796;11.968;2022-10-16T05:19:56;2.78;;;1.52;;
64031;SDS011;50278;47.796;11.968;2022-10-16T05:22:21;3.90;;;1.40;;
64031;SDS011;50278;47.796;11.968;2022-10-16T05:24:47;2.28;;;1.40;;
64031;SDS011;50278;47.796;11.968;2022-10-16T05:27:12;3.47;;;1.13;;
64031;SDS011;50278;47.796;11.968;2022-10-16T05:29:44;4.90;;;1.48;;
64031;SDS011;50278;47.796;11.968;2022-10-16T05:32:11;2.55;;;1.40;;
64031;SDS011;50278;47.796;11.968;2022-10-16T05:34:37;6.20;;;3.35;;
64031;SDS011;50278;47.796;11.968;2022-10-16T05:37:02;3.47;;;1.60;;
64031;SDS011;50278;47.796;11.968;2022-10-16T05:39:28;2.33;;;1.30;;
64031;SDS011;50278;47.796;11.968;2022-10-16T05:41:53;7.10;;;1.50;;
64031;SDS011;50278;47.796;11.968;2022-10-16T05:44:19;2.72;;;1.42;;
64031;SDS011;50278;47.796;11.968;2022-10-16T05:46:45;5.55;;;1.40;;
64031;SDS011;50278;47.796;11.968;2022-10-16T05:49:11;1.45;;;1.10;;
64031;SDS011;50278;47.796;11.968;2022-10-16T05:51:37;2.28;;;1.50;;
64031;SDS011;50278;47.796;11.968;2022-10-16T05:54:02;1.80;;;1.20;;
64031;SDS011;50278;47.796;11.968;2022-10-16T05:56:28;2.25;;;0.93;;
64031;SDS011;50278;47.796;11.968;2022-10-16T05:58:53;2.10;;;0.95;;
64031;SDS011;50278;47.796;11.968;2022-10-16T06:01:19;2.05;;;1.30;;
64031;SDS011;50278;47.796;11.968;2022-10-16T06:03:49;3.25;;;1.30;;
64031;SDS011;50278;47.796;11.968;2022-10-16T06:06:17;3.75;;;1.30;;
64031;SDS011;50278;47.796;11.968;2022-10-16T06:08:46;3.25;;;1.50;;
64031;SDS011;50278;47.796;11.968;2022-10-16T06:11:14;3.13;;;1.70;;
64031;SDS011;50278;47.796;11.968;2022-10-16T06:13:41;1.67;;;1.40;;
64031;SDS011;50278;47.796;11.968;2022-10-16T06:16:08;4.13;;;1.77;;
64031;SDS011;50278;47.796;11.968;2022-10-16T06:18:34;3.85;;;1.27;;
64031;SDS011;50278;47.796;11.968;2022-10-16T06:21:06;8.88;;;3.17;;
64031;SDS011;50278;47.796;11.968;2022-10-16T06:23:33;6.10;;;1.90;;
64031;SDS011;50278;47.796;11.968;2022-10-16T06:26:09;5.10;;;3.33;;
64031;SDS011;50278;47.796;11.968;2022-10-16T06:28:36;3.60;;;2.08;;
64031;SDS011;50278;47.796;11.968;2022-10-16T06:31:03;2.90;;;1.55;;
64031;SDS011;50278;47.796;11.968;2022-10-16T06:33:30;4.55;;;1.50;;
64031;SDS011;50278;47.796;11.968;2022-10-16T06:36:09;5.93;;;1.60;;
64031;SDS011;50278;47.796;11.968;2022-10-16T06:38:36;3.03;;;1.40;;
64031;SDS011;50278;47.796;11.968;2022-10-16T06:41:03;1.85;;;1.50;;
64031;SDS011;50278;47.796;11.968;2022-10-16T06:43:30;1.75;;;1.42;;
64031;SDS011;50278;47.796;11.968;2022-10-16T06:46:00;4.22;;;1.83;;
64031;SDS011;50278;47.796;11.968;2022-10-16T06:48:26;6.88;;;2.05;;
64031;SDS011;50278;47.796;11.968;2022-10-16T06:50:57;4.00;;;1.50;;
64031;SDS011;50278;47.796;11.968;2022-10-16T06:53:27;2.38;;;1.63;;
64031;SDS011;50278;47.796;11.968;2022-10-16T06:55:56;2.75;;;2.40;;
64031;SDS011;50278;47.796;11.968;2022-10-16T06:58:22;5.28;;;2.63;;
64031;SDS011;50278;47.796;11.968;2022-10-16T07:00:48;3.97;;;2.67;;
64031;SDS011;50278;47.796;11.968;2022-10-16T07:03:14;4.53;;;2.47;;
64031;SDS011;50278;47.796;11.968;2022-10-16T07:05:40;4.25;;;2.67;;
64031;SDS011;50278;47.796;11.968;2022-10-16T07:08:07;5.05;;;4.40;;
64031;SDS011;50278;47.796;11.968;2022-10-16T07:10:33;4.55;;;4.15;;
64031;SDS011;50278;47.796;11.968;2022-10-16T07:12:59;10.43;;;6.90;;
64031;SDS011;50278;47.796;11.968;2022-10-16T07:15:25;7.03;;;5.07;;
64031;SDS011;50278;47.796;11.968;2022-10-16T07:17:51;4.57;;;3.40;;
64031;SDS011;50278;47.796;11.968;2022-10-16T07:20:16;4.30;;;3.90;;
64031;SDS011;50278;47.796;11.968;2022-10-16T07:22:42;2.95;;;2.75;;
64031;SDS011;50278;47.796;11.968;2022-10-16T07:25:08;2.58;;;1.80;;
64031;SDS011;50278;47.796;11.968;2022-10-16T07:27:33;4.63;;;1.73;;
64031;SDS011;50278;47.796;11.968;2022-10-16T07:29:59;3.85;;;2.53;;
64031;SDS011;50278;47.796;11.968;2022-10-16T07:32:26;2.97;;;2.20;;
64031;SDS011;50278;47.796;11.968;2022-10-16T07:35:00;3.75;;;2.33;;
64031;SDS011;50278;47.796;11.968;2022-10-16T07:37:33;3.63;;;1.83;;
64031;SDS011;50278;47.796;11.968;2022-10-16T07:39:58;2.35;;;2.03;;
64031;SDS011;50278;47.796;11.968;2022-10-16T07:42:24;2.92;;;1.50;;
64031;SDS011;50278;47.796;11.968;2022-10-16T07:44:49;1.98;;;1.58;;
64031;SDS011;50278;47.796;11.968;2022-10-16T07:47:15;2.28;;;1.60;;
64031;SDS011;50278;47.796;11.968;2022-10-16T07:49:40;2.03;;;1.65;;
64031;SDS011;50278;47.796;11.968;2022-10-16T07:52:06;1.63;;;1.50;;
64031;SDS011;50278;47.796;11.968;2022-10-16T07:54:32;1.52;;;1.35;;
64031;SDS011;50278;47.796;11.968;2022-10-16T07:56:57;2.22;;;1.60;;
64031;SDS011;50278;47.796;11.968;2022-10-16T07:59:23;1.88;;;1.65;;
64031;SDS011;50278;47.796;11.968;2022-10-16T08:01:49;2.65;;;1.65;;
64031;SDS011;50278;47.796;11.968;2022-10-16T08:04:15;2.33;;;1.35;;
64031;SDS011;50278;47.796;11.968;2022-10-16T08:06:40;2.90;;;1.85;;
64031;SDS011;50278;47.796;11.968;2022-10-16T08:09:07;1.88;;;1.52;;
64031;SDS011;50278;47.796;11.968;2022-10-16T08:11:33;2.67;;;1.85;;
64031;SDS011;50278;47.796;11.968;2022-10-16T08:13:58;2.20;;;1.17;;
64031;SDS011;50278;47.796;11.968;2022-10-16T08:16:24;1.73;;;1.15;;
64031;SDS011;50278;47.796;11.968;2022-10-16T08:18:49;0.93;;;0.70;;
64031;SDS011;50278;47.796;11.968;2022-10-16T08:21:17;1.73;;;1.02;;
64031;SDS011;50278;47.796;11.968;2022-10-16T08:23:45;1.45;;;1.00;;
64031;SDS011;50278;47.796;11.968;2022-10-16T08:26:11;1.10;;;0.80;;
64031;SDS011;50278;47.796;11.968;2022-10-16T08:28:37;1.63;;;1.30;;
64031;SDS011;50278;47.796;11.968;2022-10-16T08:33:36;2.80;;;1.02;;
64031;SDS011;50278;47.796;11.968;2022-10-16T08:36:03;1.27;;;0.93;;
64031;SDS011;50278;47.796;11.968;2022-10-16T08:38:30;1.95;;;0.90;;
64031;SDS011;50278;47.796;11.968;2022-10-16T08:40:57;2.17;;;0.98;;
64031;SDS011;50278;47.796;11.968;2022-10-16T08:43:54;1.80;;;0.98;;
64031;SDS011;50278;47.796;11.968;2022-10-16T08:49:05;2.30;;;1.65;;
64031;SDS011;50278;47.796;11.968;2022-10-16T08:51:38;3.80;;;1.33;;
64031;SDS011;50278;47.796;11.968;2022-10-16T08:54:05;3.00;;;1.30;;
64031;SDS011;50278;47.796;11.968;2022-10-16T08:56:39;2.08;;;1.20;;
64031;SDS011;50278;47.796;11.968;2022-10-16T08:59:06;1.50;;;1.10;;
64031;SDS011;50278;47.796;11.968;2022-10-16T09:01:40;1.70;;;1.35;;
64031;SDS011;50278;47.796;11.968;2022-10-16T09:07:10;2.38;;;0.88;;
64031;SDS011;50278;47.796;11.968;2022-10-16T09:09:58;2.50;;;0.90;;
64031;SDS011;50278;47.796;11.968;2022-10-16T09:23:43;3.17;;;1.00;;
64031;SDS011;50278;47.796;11.968;2022-10-16T09:26:10;2.33;;;1.02;;
64031;SDS011;50278;47.796;11.968;2022-10-16T09:28:38;1.42;;;0.98;;
64031;SDS011;50278;47.796;11.968;2022-10-16T09:31:03;1.40;;;1.00;;
64031;SDS011;50278;47.796;11.968;2022-10-16T09:33:32;2.28;;;0.95;;
64031;SDS011;50278;47.796;11.968;2022-10-16T09:36:00;1.17;;;0.93;;
64031;SDS011;50278;47.796;11.968;2022-10-16T09:38:32;1.80;;;1.00;;
64031;SDS011;50278;47.796;11.968;2022-10-16T09:41:01;2.00;;;0.80;;
64031;SDS011;50278;47.796;11.968;2022-10-16T09:43:39;1.30;;;0.90;;
64031;SDS011;50278;47.796;11.968;2022-10-16T09:49:02;1.70;;;1.00;;
64031;SDS011;50278;47.796;11.968;2022-10-16T09:51:43;1.27;;;1.00;;
64031;SDS011;50278;47.796;11.968;2022-10-16T09:56:35;2.97;;;1.08;;
64031;SDS011;50278;47.796;11.968;2022-10-16T09:59:17;1.20;;;0.73;;
64031;SDS011;50278;47.796;11.968;2022-10-16T10:01:45;1.33;;;0.98;;
64031;SDS011;50278;47.796;11.968;2022-10-16T10:04:14;1.88;;;0.98;;
64031;SDS011;50278;47.796;11.968;2022-10-16T10:06:41;1.45;;;0.80;;
64031;SDS011;50278;47.796;11.968;2022-10-16T10:11:56;1.10;;;0.60;;
64031;SDS011;50278;47.796;11.968;2022-10-16T10:14:23;1.23;;;0.77;;
64031;SDS011;50278;47.796;11.968;2022-10-16T10:27:40;1.05;;;0.75;;
64031;SDS011;50278;47.796;11.968;2022-10-16T10:30:15;1.20;;;0.75;;
64031;SDS011;50278;47.796;11.968;2022-10-16T10:33:09;1.30;;;0.80;;
64031;SDS011;50278;47.796;11.968;2022-10-16T10:35:45;1.38;;;0.93;;
64031;SDS011;50278;47.796;11.968;2022-10-16T10:43:54;0.60;;;0.40;;
64031;SDS011;50278;47.796;11.968;2022-10-16T10:46:50;1.70;;;0.70;;
64031;SDS011;50278;47.796;11.968;2022-10-16T11:03:04;3.35;;;0.70;;
64031;SDS011;50278;47.796;11.968;2022-10-16T11:05:50;1.98;;;0.90;;
64031;SDS011;50278;47.796;11.968;2022-10-16T11:11:11;0.90;;;0.40;;
64031;SDS011;50278;47.796;11.968;2022-10-16T11:13:58;2.13;;;0.57;;
64031;SDS011;50278;47.796;11.968;2022-10-16T11:16:29;1.23;;;0.73;;
64031;SDS011;50278;47.796;11.968;2022-10-16T11:21:53;2.28;;;0.75;;
64031;SDS011;50278;47.796;11.968;2022-10-16T11:27:17;2.43;;;0.60;;
64031;SDS011;50278;47.796;11.968;2022-10-16T11:29:59;1.08;;;0.70;;
64031;SDS011;50278;47.796;11.968;2022-10-16T11:32:30;2.15;;;0.68;;
64031;SDS011;50278;47.796;11.968;2022-10-16T11:35:00;1.80;;;0.70;;
64031;SDS011;50278;47.796;11.968;2022-10-16T11:37:37;2.92;;;0.80;;
64031;SDS011;50278;47.796;11.968;2022-10-16T11:40:16;1.10;;;0.60;;
64031;SDS011;50278;47.796;11.968;2022-10-16T11:45:58;1.25;;;0.70;;
64031;SDS011;50278;47.796;11.968;2022-10-16T11:48:37;1.63;;;0.68;;
64031;SDS011;50278;47.796;11.968;2022-10-16T11:56:46;0.80;;;0.60;;
64031;SDS011;50278;47.796;11.968;2022-10-16T11:59:25;1.45;;;0.63;;
64031;SDS011;50278;47.796;11.968;2022-10-16T12:07:27;2.92;;;0.50;;
64031;SDS011;50278;47.796;11.968;2022-10-16T12:13:26;0.95;;;0.50;;
64031;SDS011;50278;47.796;11.968;2022-10-16T12:16:05;0.95;;;0.60;;
64031;SDS011;50278;47.796;11.968;2022-10-16T12:18:37;2.33;;;0.50;;
64031;SDS011;50278;47.796;11.968;2022-10-16T12:21:07;1.10;;;0.60;;
64031;SDS011;50278;47.796;11.968;2022-10-16T12:23:38;1.05;;;0.68;;
64031;SDS011;50278;47.796;11.968;2022-10-16T12:26:12;2.10;;;0.70;;
64031;SDS011;50278;47.796;11.968;2022-10-16T12:28:38;0.82;;;0.70;;
64031;SDS011;50278;47.796;11.968;2022-10-16T12:31:06;2.05;;;0.60;;
64031;SDS011;50278;47.796;11.968;2022-10-16T12:33:34;2.08;;;0.70;;
64031;SDS011;50278;47.796;11.968;2022-10-16T12:36:45;2.97;;;0.70;;
64031;SDS011;50278;47.796;11.968;2022-10-16T12:38:53;1.80;;;0.60;;
64031;SDS011;50278;47.796;11.968;2022-10-16T12:41:30;3.05;;;0.82;;
64031;SDS011;50278;47.796;11.968;2022-10-16T12:43:57;1.70;;;0.85;;
64031;SDS011;50278;47.796;11.968;2022-10-16T12:51:52;2.75;;;0.70;;
64031;SDS011;50278;47.796;11.968;2022-10-16T13:00:26;4.25;;;1.60;;
64031;SDS011;50278;47.796;11.968;2022-10-16T13:11:48;1.67;;;0.93;;
64031;SDS011;50278;47.796;11.968;2022-10-16T13:20:25;2.83;;;0.68;;
64031;SDS011;50278;47.796;11.968;2022-10-16T13:28:21;2.10;;;0.70;;
64031;SDS011;50278;47.796;11.968;2022-10-16T13:30:53;1.30;;;0.63;;
64031;SDS011;50278;47.796;11.968;2022-10-16T13:33:35;1.20;;;0.90;;
64031;SDS011;50278;47.796;11.968;2022-10-16T13:36:03;3.35;;;0.77;;
64031;SDS011;50278;47.796;11.968;2022-10-16T13:38:30;2.33;;;0.95;;
64031;SDS011;50278;47.796;11.968;2022-10-16T13:43:36;1.00;;;0.80;;
64031;SDS011;50278;47.796;11.968;2022-10-16T13:46:04;2.30;;;0.70;;
64031;SDS011;50278;47.796;11.968;2022-10-16T13:48:32;1.15;;;0.57;;
64031;SDS011;50278;47.796;11.968;2022-10-16T13:50:59;1.95;;;0.80;;
64031;SDS011;50278;47.796;11.968;2022-10-16T13:53:25;0.70;;;0.50;;
64031;SDS011;50278;47.796;11.968;2022-10-16T13:55:50;2.35;;;0.60;;
64031;SDS011;50278;47.796;11.968;2022-10-16T13:58:16;2.45;;;0.60;;
64031;SDS011;50278;47.796;11.968;2022-10-16T14:03:26;1.77;;;0.40;;
64031;SDS011;50278;47.796;11.968;2022-10-16T14:05:54;2.70;;;0.60;;
64031;SDS011;50278;47.796;11.968;2022-10-16T14:08:22;3.58;;;0.75;;
64031;SDS011;50278;47.796;11.968;2022-10-16T14:10:50;0.68;;;0.50;;
64031;SDS011;50278;47.796;11.968;2022-10-16T14:13:51;1.10;;;0.45;;
64031;SDS011;50278;47.796;11.968;2022-10-16T14:16:16;3.97;;;0.63;;
64031;SDS011;50278;47.796;11.968;2022-10-16T14:18:48;4.05;;;0.52;;
64031;SDS011;50278;47.796;11.968;2022-10-16T14:21:27;2.22;;;0.40;;
64031;SDS011;50278;47.796;11.968;2022-10-16T14:23:53;0.80;;;0.52;;
64031;SDS011;50278;47.796;11.968;2022-10-16T14:26:20;0.50;;;0.40;;
64031;SDS011;50278;47.796;11.968;2022-10-16T14:28:48;3.15;;;0.60;;
64031;SDS011;50278;47.796;11.968;2022-10-16T14:31:30;0.88;;;0.40;;
64031;SDS011;50278;47.796;11.968;2022-10-16T14:33:58;2.00;;;0.90;;
64031;SDS011;50278;47.796;11.968;2022-10-16T14:36:24;3.67;;;0.60;;
64031;SDS011;50278;47.796;11.968;2022-10-16T14:41:23;0.73;;;0.32;;
64031;SDS011;50278;47.796;11.968;2022-10-16T14:43:50;1.75;;;0.73;;
64031;SDS011;50278;47.796;11.968;2022-10-16T14:46:21;1.90;;;0.28;;
64031;SDS011;50278;47.796;11.968;2022-10-16T14:48:57;3.15;;;0.40;;
64031;SDS011;50278;47.796;11.968;2022-10-16T14:51:26;3.45;;;0.35;;
64031;SDS011;50278;47.796;11.968;2022-10-16T14:53:52;1.58;;;0.55;;
64031;SDS011;50278;47.796;11.968;2022-10-16T14:56:18;2.10;;;0.32;;
64031;SDS011;50278;47.796;11.968;2022-10-16T14:58:46;1.85;;;0.30;;
64031;SDS011;50278;47.796;11.968;2022-10-16T15:01:12;4.07;;;0.32;;
64031;SDS011;50278;47.796;11.968;2022-10-16T15:03:38;3.95;;;0.47;;
64031;SDS011;50278;47.796;11.968;2022-10-16T15:06:04;1.05;;;0.35;;
64031;SDS011;50278;47.796;11.968;2022-10-16T15:08:36;3.22;;;0.50;;
64031;SDS011;50278;47.796;11.968;2022-10-16T15:11:01;1.40;;;0.50;;
64031;SDS011;50278;47.796;11.968;2022-10-16T15:13:27;4.43;;;0.77;;
64031;SDS011;50278;47.796;11.968;2022-10-16T15:15:53;0.63;;;0.40;;
64031;SDS011;50278;47.796;11.968;2022-10-16T15:18:19;2.67;;;0.52;;
64031;SDS011;50278;47.796;11.968;2022-10-16T15:20:47;2.00;;;0.40;;
64031;SDS011;50278;47.796;11.968;2022-10-16T15:23:15;2.10;;;0.50;;
64031;SDS011;50278;47.796;11.968;2022-10-16T15:25:49;1.77;;;0.68;;
64031;SDS011;50278;47.796;11.968;2022-10-16T15:28:19;4.55;;;0.50;;
64031;SDS011;50278;47.796;11.968;2022-10-16T15:30:46;3.72;;;0.75;;
64031;SDS011;50278;47.796;11.968;2022-10-16T15:33:15;3.55;;;0.88;;
64031;SDS011;50278;47.796;11.968;2022-10-16T15:35:42;1.40;;;0.70;;
64031;SDS011;50278;47.796;11.968;2022-10-16T15:38:12;3.10;;;0.80;;
64031;SDS011;50278;47.796;11.968;2022-10-16T15:40:39;3.03;;;0.82;;
64031;SDS011;50278;47.796;11.968;2022-10-16T15:43:05;4.50;;;0.70;;
64031;SDS011;50278;47.796;11.968;2022-10-16T15:45:30;2.33;;;0.80;;
64031;SDS011;50278;47.796;11.968;2022-10-16T15:47:56;1.42;;;1.00;;
64031;SDS011;50278;47.796;11.968;2022-10-16T15:50:22;4.47;;;0.65;;
64031;SDS011;50278;47.796;11.968;2022-10-16T15:52:47;5.07;;;0.85;;
64031;SDS011;50278;47.796;11.968;2022-10-16T15:55:14;3.50;;;1.00;;
64031;SDS011;50278;47.796;11.968;2022-10-16T15:57:40;2.17;;;0.60;;
64031;SDS011;50278;47.796;11.968;2022-10-16T16:00:08;4.13;;;0.68;;
64031;SDS011;50278;47.796;11.968;2022-10-16T16:02:39;3.35;;;0.65;;
64031;SDS011;50278;47.796;11.968;2022-10-16T16:05:06;1.70;;;0.82;;
64031;SDS011;50278;47.796;11.968;2022-10-16T16:07:33;1.10;;;0.70;;
64031;SDS011;50278;47.796;11.968;2022-10-16T16:10:00;3.70;;;0.73;;
64031;SDS011;50278;47.796;11.968;2022-10-16T16:12:25;3.05;;;2.30;;
64031;SDS011;50278;47.796;11.968;2022-10-16T16:14:51;1.98;;;0.93;;
64031;SDS011;50278;47.796;11.968;2022-10-16T16:17:16;2.83;;;0.70;;
64031;SDS011;50278;47.796;11.968;2022-10-16T16:19:42;1.80;;;0.80;;
64031;SDS011;50278;47.796;11.968;2022-10-16T16:22:07;5.93;;;1.58;;
64031;SDS011;50278;47.796;11.968;2022-10-16T16:24:33;1.35;;;1.08;;
64031;SDS011;50278;47.796;11.968;2022-10-16T16:26:58;3.33;;;1.02;;
64031;SDS011;50278;47.796;11.968;2022-10-16T16:29:24;2.03;;;0.82;;
64031;SDS011;50278;47.796;11.968;2022-10-16T16:31:49;6.13;;;1.00;;
64031;SDS011;50278;47.796;11.968;2022-10-16T16:34:22;5.30;;;0.90;;
64031;SDS011;50278;47.796;11.968;2022-10-16T16:36:48;2.63;;;0.90;;
64031;SDS011;50278;47.796;11.968;2022-10-16T16:39:14;1.20;;;0.90;;
64031;SDS011;50278;47.796;11.968;2022-10-16T16:41:39;0.98;;;0.70;;
64031;SDS011;50278;47.796;11.968;2022-10-16T16:44:05;1.40;;;0.70;;
64031;SDS011;50278;47.796;11.968;2022-10-16T16:46:33;1.30;;;0.90;;
64031;SDS011;50278;47.796;11.968;2022-10-16T16:48:59;2.65;;;0.80;;
64031;SDS011;50278;47.796;11.968;2022-10-16T16:51:25;2.47;;;1.40;;
64031;SDS011;50278;47.796;11.968;2022-10-16T16:53:52;2.72;;;1.08;;
64031;SDS011;50278;47.796;11.968;2022-10-16T16:56:19;2.42;;;0.73;;
64031;SDS011;50278;47.796;11.968;2022-10-16T16:58:46;3.05;;;0.93;;
64031;SDS011;50278;47.796;11.968;2022-10-16T17:01:12;2.60;;;1.65;;
64031;SDS011;50278;47.796;11.968;2022-10-16T17:03:41;2.38;;;0.77;;
64031;SDS011;50278;47.796;11.968;2022-10-16T17:06:11;6.63;;;1.40;;
64031;SDS011;50278;47.796;11.968;2022-10-16T17:08:38;3.50;;;0.73;;